Time;durP1;ratioP1;P1;durP2;ratioP2;P2;SDS_P1;SDS_P2;PMS_P1;PMS_P2;Temp;Humidity;BMP_temperature;BMP_pressure;BME280_temperature;BME280_humidity;BME280_pressure;Samples;Min_cycle;Max_cycle;Signal;HPM_P1;HPM_P2
2023/04/18 00:02:35;;;;;;;26.15;16.77;;;;;;;7.01;100.00;102894.50;10080663;28;20051;-68
2023/04/18 00:07:32;;;;;;;27.65;17.15;;;;;;;6.64;100.00;102883.09;10069563;28;20332;-70
2023/04/18 00:12:30;;;;;;;24.00;16.80;;;;;;;6.88;100.00;102890.13;10078518;28;20059;-68
2023/04/18 00:17:27;;;;;;;26.73;17.45;;;;;;;7.01;100.00;102889.06;10069153;28;20063;-69
2023/04/18 00:22:24;;;;;;;34.78;19.98;;;;;;;7.02;100.00;102889.88;10073819;28;20051;-69
2023/04/18 00:27:21;;;;;;;30.27;19.95;;;;;;;7.10;100.00;102884.03;10064383;28;20082;-68
2023/04/18 00:32:18;;;;;;;32.13;20.65;;;;;;;6.88;100.00;102884.69;10072446;28;20513;-69
2023/04/18 00:37:15;;;;;;;32.17;20.73;;;;;;;6.68;100.00;102884.25;10074194;28;20147;-69
2023/04/18 00:42:11;;;;;;;37.45;22.05;;;;;;;6.57;100.00;102882.38;10075110;28;20054;-70
2023/04/18 00:47:07;;;;;;;36.05;21.52;;;;;;;6.52;100.00;102886.66;10061892;28;20051;-69
2023/04/18 00:52:04;;;;;;;39.95;23.02;;;;;;;6.45;100.00;102875.06;10070726;28;20594;-70
2023/04/18 00:57:01;;;;;;;35.95;21.10;;;;;;;6.39;100.00;102869.75;10067400;28;20050;-70
2023/04/18 01:01:57;;;;;;;34.55;21.58;;;;;;;6.47;100.00;102875.63;10070103;28;20435;-70
2023/04/18 01:06:55;;;;;;;36.00;22.52;;;;;;;6.50;100.00;102875.19;10064552;28;20434;-70
2023/04/18 01:11:52;;;;;;;34.22;22.35;;;;;;;6.29;100.00;102875.78;10065291;28;20051;-70
2023/04/18 01:16:48;;;;;;;37.45;23.20;;;;;;;6.29;100.00;102870.34;10066289;28;20053;-70
2023/04/18 01:21:45;;;;;;;34.40;23.05;;;;;;;6.31;100.00;102873.63;10071590;28;20394;-70
2023/04/18 01:26:46;;;;;;;33.88;23.20;;;;;;;6.26;100.00;102878.94;10068809;28;20079;-69
2023/04/18 01:31:42;;;;;;;38.05;21.80;;;;;;;6.28;100.00;102884.97;10073116;28;20043;-69
2023/04/18 01:36:39;;;;;;;35.15;22.10;;;;;;;6.14;100.00;102889.00;10066430;28;20071;-71
2023/04/18 01:41:36;;;;;;;36.13;24.65;;;;;;;5.84;100.00;102879.00;10071194;28;20091;-71
2023/04/18 01:46:33;;;;;;;42.40;24.27;;;;;;;5.90;100.00;102883.50;10069702;28;20499;-70
2023/04/18 01:51:30;;;;;;;41.90;24.13;;;;;;;5.94;100.00;102872.97;10068816;28;20051;-70
2023/04/18 01:56:26;;;;;;;41.83;25.20;;;;;;;5.77;100.00;102873.66;10065888;28;20055;-70
2023/04/18 02:01:23;;;;;;;41.38;24.13;;;;;;;5.76;100.00;102865.78;10076560;28;20051;-69
2023/04/18 02:06:19;;;;;;;35.72;21.45;;;;;;;5.96;100.00;102860.84;10045089;28;20055;-70
2023/04/18 02:11:16;;;;;;;36.25;21.77;;;;;;;5.82;100.00;102864.81;10067422;28;20075;-70
2023/04/18 02:16:13;;;;;;;34.40;21.25;;;;;;;5.85;100.00;102858.94;10062334;28;20473;-70
2023/04/18 02:21:10;;;;;;;41.47;25.05;;;;;;;5.70;100.00;102862.91;10067788;28;20138;-68
2023/04/18 02:26:06;;;;;;;36.45;21.67;;;;;;;5.55;100.00;102881.53;10069211;28;20069;-70
2023/04/18 02:31:03;;;;;;;38.90;23.05;;;;;;;5.59;100.00;102871.88;10068646;28;20106;-70
2023/04/18 02:36:00;;;;;;;42.85;23.73;;;;;;;5.48;100.00;102865.34;10072023;28;20047;-68
2023/04/18 02:40:57;;;;;;;34.85;21.83;;;;;;;5.47;100.00;102863.66;10066613;28;20134;-69
2023/04/18 02:45:53;;;;;;;40.63;23.40;;;;;;;5.30;100.00;102867.28;10066416;28;20553;-69
2023/04/18 02:50:50;;;;;;;33.47;20.65;;;;;;;5.42;100.00;102868.13;10069322;28;20138;-69
2023/04/18 02:55:46;;;;;;;34.65;20.55;;;;;;;5.31;100.00;102868.91;10067597;28;20509;-69
2023/04/18 03:00:43;;;;;;;33.33;21.70;;;;;;;5.15;100.00;102864.94;10066258;28;20058;-68
2023/04/18 03:05:39;;;;;;;34.00;22.83;;;;;;;4.98;100.00;102864.75;10073939;28;20045;-68
2023/04/18 03:10:36;;;;;;;35.78;22.27;;;;;;;5.15;100.00;102871.22;10073342;28;20509;-70
2023/04/18 03:15:32;;;;;;;32.30;19.77;;;;;;;5.14;100.00;102864.13;10066653;28;20126;-70
2023/04/18 03:20:29;;;;;;;39.60;21.77;;;;;;;5.06;100.00;102867.16;10055556;28;20412;-70
2023/04/18 03:25:26;;;;;;;29.05;18.65;;;;;;;5.06;100.00;102878.00;10050495;28;21070;-68
2023/04/18 03:30:24;;;;;;;31.38;18.83;;;;;;;5.08;100.00;102881.28;10068687;28;20528;-69
2023/04/18 03:35:21;;;;;;;27.73;18.55;;;;;;;5.10;100.00;102890.03;10074300;28;20047;-70
2023/04/18 03:40:17;;;;;;;29.80;19.67;;;;;;;4.89;100.00;102893.22;10070885;28;20762;-69
2023/04/18 03:45:15;;;;;;;29.05;19.23;;;;;;;5.03;100.00;102889.28;10066616;28;20051;-70
2023/04/18 03:50:11;;;;;;;29.83;19.65;;;;;;;4.94;100.00;102896.91;10068898;28;20533;-70
2023/04/18 03:55:08;;;;;;;26.38;17.23;;;;;;;4.91;100.00;102896.53;10071010;28;20134;-69
2023/04/18 04:00:07;;;;;;;29.25;19.13;;;;;;;4.76;100.00;102905.88;10056331;28;20059;-69
2023/04/18 04:05:04;;;;;;;29.00;19.10;;;;;;;4.83;100.00;102906.63;10068373;28;20040;-69
2023/04/18 04:10:01;;;;;;;27.48;16.80;;;;;;;4.76;100.00;102905.88;10065134;28;20062;-69
2023/04/18 04:14:57;;;;;;;27.75;18.85;;;;;;;4.68;100.00;102917.00;10061419;28;20057;-68
2023/04/18 04:19:54;;;;;;;27.65;19.38;;;;;;;4.71;100.00;102916.56;10072987;28;20398;-69
2023/04/18 04:24:50;;;;;;;30.20;19.13;;;;;;;4.64;100.00;102919.34;10062053;28;20106;-69
2023/04/18 04:29:48;;;;;;;33.17;20.42;;;;;;;4.80;100.00;102917.94;10058699;28;20074;-68
2023/04/18 04:34:45;;;;;;;38.70;18.90;;;;;;;4.70;100.00;102923.03;10059500;28;20125;-70
2023/04/18 04:39:41;;;;;;;29.67;18.05;;;;;;;4.77;100.00;102928.38;10053902;28;20043;-69
2023/04/18 04:44:40;;;;;;;24.25;16.85;;;;;;;4.69;100.00;102942.22;10065805;28;20544;-69
2023/04/18 04:49:37;;;;;;;29.02;17.48;;;;;;;4.66;100.00;102942.66;10051281;28;20047;-69
2023/04/18 04:54:34;;;;;;;24.88;16.55;;;;;;;4.82;100.00;102951.03;10065373;28;20043;-69
2023/04/18 04:59:30;;;;;;;27.83;16.33;;;;;;;4.81;100.00;102945.84;10063802;28;20474;-69
2023/04/18 05:04:27;;;;;;;27.20;17.88;;;;;;;4.81;100.00;102952.09;10066766;28;20502;-69
2023/04/18 05:09:23;;;;;;;26.40;18.40;;;;;;;4.77;100.00;102950.06;10063159;28;20110;-68
2023/04/18 05:14:20;;;;;;;24.38;15.88;;;;;;;4.76;100.00;102949.25;10063675;28;20415;-68
2023/04/18 05:19:17;;;;;;;26.98;16.88;;;;;;;4.83;100.00;102947.28;10051504;28;20067;-68
2023/04/18 05:24:13;;;;;;;29.88;16.00;;;;;;;4.97;100.00;102949.88;10054369;28;20050;-68
2023/04/18 05:29:10;;;;;;;23.13;14.90;;;;;;;4.95;100.00;102963.63;10044026;28;20138;-68
2023/04/18 05:34:06;;;;;;;23.45;15.07;;;;;;;4.98;100.00;102963.19;10063445;28;20085;-68
2023/04/18 05:39:03;;;;;;;17.35;13.73;;;;;;;5.02;100.00;102963.56;10050613;28;20047;-69
2023/04/18 05:43:59;;;;;;;24.48;14.43;;;;;;;5.27;100.00;102956.19;10066701;28;20525;-70
2023/04/18 05:49:01;;;;;;;23.23;14.23;;;;;;;5.28;100.00;102955.13;10059455;28;20058;-69
2023/04/18 05:53:57;;;;;;;25.25;14.27;;;;;;;5.43;100.00;102964.75;10052868;28;20421;-69
2023/04/18 05:58:54;;;;;;;17.17;11.57;;;;;;;5.49;100.00;102963.84;10056578;28;20506;-69
2023/04/18 06:03:51;;;;;;;19.75;12.45;;;;;;;5.65;100.00;102973.22;10055413;28;20477;-69
2023/04/18 06:08:47;;;;;;;17.52;10.95;;;;;;;5.60;100.00;102975.81;10056400;28;20465;-69
2023/04/18 06:13:44;;;;;;;19.58;12.23;;;;;;;5.68;100.00;102984.44;10061413;28;20062;-69
2023/04/18 06:18:40;;;;;;;19.60;11.57;;;;;;;5.74;100.00;102987.31;10054608;28;20047;-69
2023/04/18 06:23:37;;;;;;;22.48;12.23;;;;;;;5.80;100.00;102984.53;10049117;28;20145;-69
2023/04/18 06:28:34;;;;;;;15.23;11.80;;;;;;;6.11;100.00;102994.31;10064759;28;20047;-68
2023/04/18 06:33:30;;;;;;;15.88;10.48;;;;;;;6.37;100.00;102992.25;10053395;28;20093;-68
2023/04/18 06:38:27;;;;;;;20.88;12.07;;;;;;;6.78;100.00;102990.53;10058718;28;20509;-69
2023/04/18 06:43:23;;;;;;;17.33;12.00;;;;;;;7.01;100.00;102997.00;10049946;28;20193;-68
2023/04/18 06:48:20;;;;;;;15.65;11.30;;;;;;;7.15;100.00;102987.53;10073531;28;20568;-69
2023/04/18 06:53:16;;;;;;;15.57;11.93;;;;;;;7.48;100.00;102999.66;10062357;28;20051;-69
2023/04/18 06:58:15;;;;;;;16.27;11.80;;;;;;;7.53;100.00;102999.75;10060871;28;20055;-68
2023/04/18 07:03:11;;;;;;;15.00;10.93;;;;;;;7.68;100.00;103005.53;10068686;28;20172;-68
2023/04/18 07:08:09;;;;;;;18.52;11.77;;;;;;;7.72;100.00;103014.84;10060026;28;20083;-68
2023/04/18 07:13:05;;;;;;;11.65;9.68;;;;;;;7.89;100.00;103019.50;10061590;28;20429;-68
2023/04/18 07:18:02;;;;;;;15.90;10.77;;;;;;;8.19;100.00;103020.09;10066340;28;20043;-69
2023/04/18 07:22:58;;;;;;;18.15;10.75;;;;;;;8.16;100.00;103015.09;10057847;28;20564;-68
2023/04/18 07:27:55;;;;;;;13.43;10.20;;;;;;;8.42;100.00;103019.16;10059042;28;20091;-68
2023/04/18 07:32:51;;;;;;;17.17;11.98;;;;;;;8.71;100.00;103016.34;10062927;28;20066;-68
2023/04/18 07:37:48;;;;;;;15.68;11.68;;;;;;;8.73;100.00;103021.56;10069409;28;20051;-68
2023/04/18 07:42:44;;;;;;;18.50;11.50;;;;;;;8.73;100.00;103018.81;10082323;28;20067;-68
2023/04/18 07:47:41;;;;;;;16.98;11.18;;;;;;;8.96;100.00;103007.72;10058253;28;20493;-72
2023/04/18 07:52:37;;;;;;;16.67;11.57;;;;;;;9.17;100.00;103013.47;10042708;28;20091;-72
2023/04/18 07:57:34;;;;;;;16.17;11.20;;;;;;;9.54;100.00;103007.34;10028796;28;20075;-72
2023/04/18 08:02:31;;;;;;;17.75;11.80;;;;;;;9.80;100.00;103003.84;10039917;28;20073;-72
2023/04/18 08:07:28;;;;;;;13.48;10.52;;;;;;;9.72;100.00;103009.75;10061355;28;20101;-72
2023/04/18 08:12:24;;;;;;;16.10;10.38;;;;;;;9.93;100.00;103007.25;10058168;28;20057;-72
2023/04/18 08:17:22;;;;;;;11.30;10.10;;;;;;;10.35;100.00;102999.22;10059529;28;20070;-72
2023/04/18 08:22:19;;;;;;;12.73;10.32;;;;;;;10.30;100.00;103000.00;10056419;28;20514;-72
2023/04/18 08:27:15;;;;;;;13.98;10.43;;;;;;;9.98;100.00;102999.09;10059080;28;20056;-72
2023/04/18 08:32:11;;;;;;;12.52;9.57;;;;;;;9.80;100.00;103017.50;10069977;28;20054;-72
2023/04/18 08:37:09;;;;;;;16.88;10.73;;;;;;;9.66;100.00;103017.09;10065784;28;20776;-73
2023/04/18 08:42:08;;;;;;;11.82;9.90;;;;;;;9.87;100.00;103029.06;10068128;28;20486;-72
2023/04/18 08:47:08;;;;;;;11.57;10.30;;;;;;;10.07;100.00;103024.88;10068741;28;20509;-73
2023/04/18 08:52:12;;;;;;;15.15;11.45;;;;;;;10.16;100.00;103019.78;10049663;28;20055;-72
2023/04/18 08:57:15;;;;;;;12.77;10.93;;;;;;;10.51;100.00;103016.56;10044104;28;20102;-72
2023/04/18 09:02:12;;;;;;;16.10;11.93;;;;;;;10.60;100.00;103015.00;10060162;28;20047;-72
2023/04/18 09:07:11;;;;;;;12.18;10.88;;;;;;;10.72;100.00;103018.41;10064565;28;20083;-72
2023/04/18 09:12:09;;;;;;;14.88;11.23;;;;;;;11.18;100.00;103019.75;10055544;28;20079;-72
2023/04/18 09:17:06;;;;;;;14.10;10.70;;;;;;;11.09;100.00;103023.00;10066794;28;20654;-72
2023/04/18 09:22:03;;;;;;;14.63;10.85;;;;;;;11.51;100.00;103016.63;10064725;28;20055;-73
2023/04/18 09:27:00;;;;;;;14.60;10.95;;;;;;;10.79;100.00;103018.16;10061032;28;20063;-72
2023/04/18 09:31:59;;;;;;;14.80;12.05;;;;;;;10.57;100.00;103020.19;10062069;28;20047;-72
2023/04/18 09:37:10;;;;;;;17.75;11.25;;;;;;;10.45;100.00;103020.38;10059390;28;20043;-73
2023/04/18 09:42:07;;;;;;;15.32;11.27;;;;;;;10.38;100.00;103026.03;10054277;28;20481;-72
2023/04/18 09:47:06;;;;;;;14.80;11.30;;;;;;;10.27;100.00;103027.81;10058904;28;20134;-72
2023/04/18 09:52:06;;;;;;;10.93;9.52;;;;;;;10.43;100.00;103026.09;10050778;28;20066;-72
2023/04/18 09:57:09;;;;;;;11.27;10.15;;;;;;;10.50;100.00;103020.41;10060223;28;20062;-72
2023/04/18 10:02:14;;;;;;;12.80;9.90;;;;;;;10.20;100.00;103021.75;10057551;28;20561;-72
2023/04/18 10:07:11;;;;;;;16.52;10.43;;;;;;;10.27;100.00;103027.81;10057558;28;20054;-72
2023/04/18 10:12:11;;;;;;;11.20;10.00;;;;;;;10.56;100.00;103024.00;10051410;28;20528;-72
2023/04/18 10:17:09;;;;;;;11.25;8.88;;;;;;;10.49;100.00;103024.22;10062593;28;20062;-72
2023/04/18 10:22:05;;;;;;;10.60;9.13;;;;;;;10.62;100.00;103028.44;10066204;28;20062;-73
2023/04/18 10:27:02;;;;;;;11.30;9.57;;;;;;;10.78;100.00;103016.50;10065087;28;20043;-74
2023/04/18 10:32:05;;;;;;;9.60;8.57;;;;;;;10.70;100.00;103020.56;10062854;28;20509;-72
2023/04/18 10:37:03;;;;;;;11.30;9.27;;;;;;;11.52;100.00;103007.31;10060031;28;20494;-73
2023/04/18 10:42:00;;;;;;;11.95;8.98;;;;;;;11.84;100.00;103006.31;10060582;28;20047;-72
2023/04/18 10:46:56;;;;;;;9.55;8.63;;;;;;;12.05;100.00;103017.38;10071825;28;20048;-72
2023/04/18 10:51:55;;;;;;;10.45;9.43;;;;;;;11.84;100.00;103006.31;10063931;28;20134;-72
2023/04/18 10:56:52;;;;;;;10.85;9.18;;;;;;;12.15;100.00;103007.22;10060976;28;20049;-72
2023/04/18 11:02:15;;;;;;;11.57;9.88;;;;;;;12.10;100.00;103011.88;10058382;28;20047;-72
2023/04/18 11:07:12;;;;;;;11.73;9.43;;;;;;;11.40;100.00;103023.16;10069473;28;20455;-72
2023/04/18 11:12:10;;;;;;;13.93;9.90;;;;;;;11.59;100.00;103013.38;10066232;28;20697;-72
2023/04/18 11:17:16;;;;;;;13.90;11.27;;;;;;;11.25;100.00;103015.69;10061315;28;20058;-72
2023/04/18 11:22:13;;;;;;;13.73;11.02;;;;;;;11.77;100.00;103011.25;10070368;28;20110;-72
2023/04/18 11:27:13;;;;;;;15.32;11.38;;;;;;;12.04;100.00;103000.06;10058202;28;20051;-72
2023/04/18 11:32:09;;;;;;;11.77;10.25;;;;;;;12.38;100.00;103008.59;10066903;28;20047;-72
2023/04/18 11:37:06;;;;;;;13.15;10.25;;;;;;;12.11;100.00;103010.78;10063389;28;20051;-72
2023/04/18 11:42:03;;;;;;;11.63;10.00;;;;;;;11.91;100.00;103012.41;10058732;28;20068;-72
2023/04/18 11:46:59;;;;;;;10.80;9.27;;;;;;;12.32;100.00;103015.22;10056466;28;20054;-72
2023/04/18 11:51:58;;;;;;;10.68;9.55;;;;;;;12.40;100.00;103014.66;10054182;28;20147;-72
2023/04/18 11:56:55;;;;;;;9.68;8.65;;;;;;;12.49;100.00;103014.94;10060958;28;20050;-72
2023/04/18 12:02:02;;;;;;;10.30;9.15;;;;;;;12.29;100.00;103018.47;10065283;28;20052;-72
2023/04/18 12:07:11;;;;;;;9.88;8.88;;;;;;;12.99;100.00;103015.13;10056910;28;20050;-72
2023/04/18 12:12:07;;;;;;;10.43;9.43;;;;;;;13.24;100.00;103006.81;10062197;28;20394;-72
2023/04/18 12:17:04;;;;;;;10.20;8.18;;;;;;;13.99;100.00;103010.59;10057365;28;20563;-72
2023/04/18 12:22:03;;;;;;;10.63;8.13;;;;;;;14.99;100.00;103016.66;10055625;28;20132;-72
2023/04/18 12:27:00;;;;;;;8.60;7.75;;;;;;;16.45;100.00;103014.09;10060329;28;20651;-72
2023/04/18 12:31:57;;;;;;;10.85;8.40;;;;;;;17.36;100.00;103009.94;10061033;28;20047;-72
2023/04/18 12:36:53;;;;;;;10.52;9.50;;;;;;;15.87;100.00;103008.94;10055670;28;20565;-72
2023/04/18 12:41:50;;;;;;;9.55;8.32;;;;;;;14.85;100.00;102997.22;10063127;28;20040;-72
2023/04/18 12:46:46;;;;;;;11.40;8.88;;;;;;;14.63;100.00;103003.25;10063336;28;20047;-72
2023/04/18 12:51:43;;;;;;;11.23;8.40;;;;;;;14.71;100.00;102994.34;10062905;28;20560;-72
2023/04/18 12:56:39;;;;;;;8.82;8.02;;;;;;;14.09;100.00;102999.53;10060732;28;20114;-73
2023/04/18 13:01:36;;;;;;;8.40;7.63;;;;;;;13.76;100.00;102998.34;10063100;28;20043;-72
2023/04/18 13:06:32;;;;;;;9.38;7.88;;;;;;;13.59;100.00;102985.81;10059394;28;20537;-72
2023/04/18 13:11:29;;;;;;;8.15;7.35;;;;;;;14.41;100.00;102982.50;10057533;28;20432;-73
2023/04/18 13:16:25;;;;;;;14.80;8.23;;;;;;;15.71;100.00;102978.84;10058537;28;20133;-72
2023/04/18 13:21:23;;;;;;;10.02;8.63;;;;;;;14.87;100.00;102982.06;10050873;28;20166;-72
2023/04/18 13:26:20;;;;;;;8.50;7.30;;;;;;;14.84;100.00;102979.09;10060993;28;20047;-72
2023/04/18 13:31:16;;;;;;;10.48;7.75;;;;;;;14.65;100.00;102990.03;10062761;28;20498;-72
2023/04/18 13:36:13;;;;;;;9.00;7.90;;;;;;;14.24;100.00;102974.63;10057738;28;20051;-72
2023/04/18 13:41:09;;;;;;;10.63;7.82;;;;;;;14.61;100.00;102972.44;10048048;28;20087;-72
2023/04/18 13:46:08;;;;;;;10.02;7.47;;;;;;;14.53;100.00;102971.91;10051234;28;20051;-72
2023/04/18 13:51:05;;;;;;;8.32;7.43;;;;;;;14.68;100.00;102972.91;10056240;28;20539;-72
2023/04/18 13:56:02;;;;;;;9.32;8.35;;;;;;;14.32;100.00;102970.47;10065944;28;20094;-72
2023/04/18 14:00:58;;;;;;;8.77;7.85;;;;;;;14.55;100.00;102968.06;10059035;28;20047;-72
2023/04/18 14:05:55;;;;;;;9.32;8.43;;;;;;;14.23;100.00;102966.69;10052800;28;20052;-72
2023/04/18 14:10:51;;;;;;;9.23;8.38;;;;;;;14.29;100.00;102974.59;10066150;28;20707;-72
2023/04/18 14:15:48;;;;;;;12.95;9.82;;;;;;;14.01;100.00;102981.69;10061152;28;20058;-72
2023/04/18 14:20:45;;;;;;;10.15;8.60;;;;;;;14.04;100.00;102970.13;10062180;28;20051;-72
2023/04/18 14:25:42;;;;;;;9.98;8.93;;;;;;;14.04;100.00;102975.63;10050367;28;20074;-72
2023/04/18 14:30:39;;;;;;;9.35;8.55;;;;;;;14.12;100.00;102970.63;10055906;28;20122;-72
2023/04/18 14:35:36;;;;;;;12.63;8.90;;;;;;;14.10;100.00;102968.97;10056493;28;20131;-72
2023/04/18 14:40:32;;;;;;;15.48;8.85;;;;;;;13.90;100.00;102977.38;10054941;28;20075;-72
2023/04/18 14:45:32;;;;;;;9.80;8.77;;;;;;;13.75;100.00;102969.22;10053368;28;20043;-72
2023/04/18 14:50:28;;;;;;;10.32;9.18;;;;;;;13.38;100.00;102978.78;10058880;28;20065;-72
2023/04/18 14:55:25;;;;;;;8.63;7.82;;;;;;;13.52;100.00;102968.81;10063199;28;20047;-72
2023/04/18 15:00:21;;;;;;;12.55;8.65;;;;;;;13.73;100.00;102968.69;10066716;28;22148;-72
2023/04/18 15:05:22;;;;;;;10.10;9.05;;;;;;;14.03;100.00;102967.66;10062473;28;20569;-70
2023/04/18 15:10:21;;;;;;;12.40;10.23;;;;;;;13.61;100.00;102961.63;10082972;28;20524;-70
2023/04/18 15:15:18;;;;;;;8.98;8.07;;;;;;;14.02;100.00;102961.34;10061861;28;20054;-70
2023/04/18 15:20:14;;;;;;;11.02;9.10;;;;;;;14.50;100.00;102956.00;10053782;28;20082;-70
2023/04/18 15:25:15;;;;;;;11.70;9.02;;;;;;;14.58;100.00;102948.25;10060809;28;20122;-70
2023/04/18 15:30:12;;;;;;;9.70;8.52;;;;;;;14.81;100.00;102944.69;10064190;28;20055;-70
2023/04/18 15:35:10;;;;;;;10.85;8.90;;;;;;;15.55;100.00;102956.16;10061021;28;20070;-72
2023/04/18 15:40:09;;;;;;;10.88;8.82;;;;;;;16.32;100.00;102960.50;10060019;28;20056;-71
2023/04/18 15:45:06;;;;;;;9.55;8.60;;;;;;;15.92;100.00;102951.78;10068717;28;20063;-72
2023/04/18 15:50:03;;;;;;;10.82;9.35;;;;;;;14.88;100.00;102950.66;10063806;28;20055;-73
2023/04/18 15:55:00;;;;;;;9.18;8.18;;;;;;;14.99;100.00;102950.53;10074616;28;20055;-74
2023/04/18 15:59:58;;;;;;;9.13;8.23;;;;;;;14.52;100.00;102950.19;10068418;28;20042;-72
2023/04/18 16:04:54;;;;;;;8.23;7.43;;;;;;;15.64;100.00;102950.81;10063129;28;20133;-73
2023/04/18 16:09:51;;;;;;;9.25;8.23;;;;;;;16.29;100.00;102954.75;10071520;28;20138;-73
2023/04/18 16:14:47;;;;;;;9.43;8.48;;;;;;;15.46;100.00;102959.88;10068996;28;20646;-73
2023/04/18 16:19:44;;;;;;;9.20;8.30;;;;;;;14.45;100.00;102953.25;10076132;28;20046;-73
2023/04/18 16:24:40;;;;;;;11.80;8.30;;;;;;;15.88;100.00;102949.91;10066622;28;20053;-73
2023/04/18 16:29:37;;;;;;;11.30;8.32;;;;;;;17.16;100.00;102956.72;10064995;28;20071;-72
2023/04/18 16:34:34;;;;;;;10.60;9.13;;;;;;;17.62;100.00;102957.69;10064251;28;20386;-72
2023/04/18 16:39:30;;;;;;;16.00;8.27;;;;;;;15.31;100.00;102953.44;10061694;28;20394;-71
2023/04/18 16:44:27;;;;;;;9.05;8.25;;;;;;;14.35;100.00;102964.38;10057234;28;20117;-71
2023/04/18 16:49:24;;;;;;;12.95;8.77;;;;;;;14.81;100.00;102966.72;10060512;28;20066;-72
2023/04/18 16:54:20;;;;;;;10.02;9.02;;;;;;;14.98;100.00;102965.44;10057870;28;20047;-72
2023/04/18 16:59:17;;;;;;;10.55;8.75;;;;;;;16.02;100.00;102972.88;10058912;28;20117;-68
2023/04/18 17:04:14;;;;;;;11.18;8.65;;;;;;;16.02;100.00;102978.38;10066351;28;20059;-68
2023/04/18 17:09:13;;;;;;;12.07;8.45;;;;;;;14.74;100.00;102974.50;10061840;28;20146;-67
2023/04/18 17:14:12;;;;;;;10.10;8.05;;;;;;;14.28;100.00;102974.91;10067190;28;20126;-67
2023/04/18 17:19:09;;;;;;;9.60;8.27;;;;;;;13.75;100.00;102983.78;10059618;28;20039;-68
2023/04/18 17:24:06;;;;;;;8.93;7.78;;;;;;;13.77;100.00;102983.53;10064379;28;20382;-68
2023/04/18 17:29:03;;;;;;;10.27;8.18;;;;;;;13.20;100.00;102983.75;10068015;28;20642;-68
2023/04/18 17:33:59;;;;;;;12.20;8.73;;;;;;;12.61;100.00;102984.47;10063697;28;20047;-67
2023/04/18 17:39:04;;;;;;;8.60;7.82;;;;;;;12.49;100.00;102994.91;10064374;28;20438;-68
2023/04/18 17:44:00;;;;;;;9.93;8.48;;;;;;;12.10;100.00;103000.91;10059183;28;20062;-68
2023/04/18 17:48:58;;;;;;;9.48;8.05;;;;;;;12.26;100.00;102999.03;10062893;28;20059;-67
2023/04/18 17:53:54;;;;;;;9.52;7.32;;;;;;;12.11;100.00;102994.31;10067405;28;20142;-68
2023/04/18 17:58:51;;;;;;;11.98;7.45;;;;;;;11.90;100.00;102999.78;10053767;28;20110;-68
2023/04/18 18:03:52;;;;;;;8.77;6.60;;;;;;;11.88;100.00;103004.72;10053211;28;20054;-67
2023/04/18 18:08:50;;;;;;;10.27;7.78;;;;;;;11.45;100.00;103004.00;10051391;28;20086;-67
2023/04/18 18:13:49;;;;;;;13.43;8.73;;;;;;;11.22;100.00;103016.22;10061080;28;20063;-68
2023/04/18 18:18:46;;;;;;;12.52;8.05;;;;;;;11.02;100.00;103011.44;10062039;28;20075;-68
2023/04/18 18:23:43;;;;;;;10.70;7.93;;;;;;;10.83;100.00;103019.28;10056838;28;20145;-72
2023/04/18 18:28:39;;;;;;;9.05;7.47;;;;;;;10.51;100.00;103027.50;10051815;28;20489;-72
2023/04/18 18:33:36;;;;;;;12.52;8.90;;;;;;;10.54;100.00;103032.47;10053252;28;20480;-72
2023/04/18 18:38:32;;;;;;;9.60;7.72;;;;;;;10.27;100.00;103032.47;10058725;28;20477;-72
2023/04/18 18:43:28;;;;;;;11.93;8.48;;;;;;;10.18;100.00;103034.03;10053388;28;20075;-72
2023/04/18 18:48:28;;;;;;;13.40;8.85;;;;;;;10.02;100.00;103052.16;10066240;28;20142;-72
2023/04/18 18:53:25;;;;;;;13.15;8.18;;;;;;;9.88;100.00;103052.56;10071273;28;20066;-72
2023/04/18 18:58:21;;;;;;;14.48;8.75;;;;;;;9.69;100.00;103049.34;10075090;28;20086;-72
2023/04/18 19:03:19;;;;;;;10.85;7.72;;;;;;;9.71;100.00;103062.75;10066407;28;20119;-72
2023/04/18 19:08:16;;;;;;;11.07;8.13;;;;;;;9.60;100.00;103063.69;10073523;28;20043;-72
2023/04/18 19:13:13;;;;;;;9.75;8.48;;;;;;;9.52;100.00;103062.25;10071843;28;20039;-72
2023/04/18 19:18:09;;;;;;;12.45;8.95;;;;;;;9.42;100.00;103065.69;10065407;28;20552;-72
2023/04/18 19:23:06;;;;;;;15.23;9.75;;;;;;;9.27;100.00;103069.00;10071906;28;20059;-72
2023/04/18 19:28:04;;;;;;;10.13;8.63;;;;;;;9.28;100.00;103064.38;10060084;28;20052;-72
2023/04/18 19:33:01;;;;;;;12.60;9.23;;;;;;;9.12;100.00;103071.53;10067471;28;20098;-72
2023/04/18 19:38:00;;;;;;;10.57;8.68;;;;;;;9.05;100.00;103071.72;10071492;28;20098;-72
2023/04/18 19:42:56;;;;;;;10.82;8.00;;;;;;;9.03;100.00;103065.66;10060284;28;20050;-72
2023/04/18 19:47:53;;;;;;;12.27;9.82;;;;;;;8.92;100.00;103066.59;10057709;28;20039;-73
2023/04/18 19:52:50;;;;;;;9.80;8.68;;;;;;;8.77;100.00;103066.31;10055864;28;20059;-70
2023/04/18 19:57:46;;;;;;;10.98;9.48;;;;;;;8.71;100.00;103059.16;10065215;28;20058;-69
2023/04/18 20:02:43;;;;;;;11.48;8.95;;;;;;;8.58;100.00;103050.22;10062574;28;20051;-76
2023/04/18 20:07:40;;;;;;;11.10;8.60;;;;;;;8.58;100.00;103055.66;10061532;28;20122;-77
2023/04/18 20:12:37;;;;;;;10.10;8.35;;;;;;;8.55;100.00;103060.78;10067026;28;20043;-68
2023/04/18 20:17:33;;;;;;;11.00;8.50;;;;;;;8.40;100.00;103058.63;10066870;28;20059;-67
2023/04/18 20:22:31;;;;;;;10.45;7.95;;;;;;;8.30;100.00;103064.69;10068850;28;20522;-70
2023/04/18 20:27:27;;;;;;;13.90;9.63;;;;;;;8.10;100.00;103067.88;10073898;28;20126;-70
2023/04/18 20:32:24;;;;;;;12.38;8.65;;;;;;;8.10;100.00;103070.59;10064848;28;20044;-70
2023/04/18 20:37:21;;;;;;;12.35;9.23;;;;;;;8.01;100.00;103072.06;10068590;28;20471;-69
2023/04/18 20:42:18;;;;;;;14.10;8.52;;;;;;;8.02;100.00;103084.59;10065015;28;20047;-71
2023/04/18 20:47:14;;;;;;;14.82;10.73;;;;;;;7.92;100.00;103073.50;10070901;28;20073;-70
2023/04/18 20:52:13;;;;;;;14.52;10.68;;;;;;;7.78;100.00;103079.22;10066984;28;20047;-70
2023/04/18 20:57:09;;;;;;;20.58;11.57;;;;;;;7.71;100.00;103077.72;10070872;28;20058;-71
2023/04/18 21:02:06;;;;;;;14.00;10.20;;;;;;;7.61;100.00;103089.22;10070606;28;20437;-72
2023/04/18 21:07:03;;;;;;;15.60;10.30;;;;;;;7.74;100.00;103088.94;10067478;28;20043;-71
2023/04/18 21:12:01;;;;;;;13.45;9.57;;;;;;;7.60;100.00;103103.91;10067572;28;20066;-77
2023/04/18 21:16:59;;;;;;;13.25;9.55;;;;;;;7.41;100.00;103105.13;10078674;28;20063;-76
2023/04/18 21:21:57;;;;;;;14.90;10.13;;;;;;;7.40;100.00;103120.59;10063516;28;20481;-74
2023/04/18 21:26:56;;;;;;;13.82;9.98;;;;;;;7.25;100.00;103118.38;10056660;28;20352;-75
2023/04/18 21:31:53;;;;;;;11.90;8.93;;;;;;;7.17;100.00;103121.44;10057277;28;20050;-74
2023/04/18 21:36:50;;;;;;;11.45;8.23;;;;;;;6.95;100.00;103124.72;10062614;28;20131;-71
2023/04/18 21:41:46;;;;;;;14.07;9.13;;;;;;;6.86;100.00;103112.53;10066200;28;20122;-71
2023/04/18 21:46:44;;;;;;;12.80;9.60;;;;;;;6.80;100.00;103116.22;10069821;28;20462;-70
2023/04/18 21:51:42;;;;;;;12.60;9.75;;;;;;;6.73;100.00;103115.47;10072389;28;20074;-73
2023/04/18 21:56:39;;;;;;;13.30;8.90;;;;;;;6.81;100.00;103119.75;10050944;28;20551;-73
2023/04/18 22:01:38;;;;;;;12.02;8.73;;;;;;;6.63;100.00;103109.78;10057782;28;20053;-73
2023/04/18 22:06:37;;;;;;;14.35;9.43;;;;;;;6.60;100.00;103110.25;10066058;28;20043;-73
2023/04/18 22:11:33;;;;;;;10.20;8.57;;;;;;;6.61;100.00;103117.31;10072734;28;20043;-72
2023/04/18 22:16:30;;;;;;;18.52;9.48;;;;;;;6.51;100.00;103118.72;10075322;28;20469;-71